createdAt,value
2022-08-22T00:00:38.349Z,100.00
2022-08-22T00:02:46.232Z,100.00
2022-08-22T00:02:56.069Z,100.00
2022-08-22T00:03:50.210Z,100.00
2022-08-22T00:06:25.424Z,100.00
2022-08-22T00:09:15.416Z,100.00
2022-08-22T00:11:50.346Z,100.00
2022-08-22T00:14:31.434Z,100.00
2022-08-22T00:17:21.347Z,100.00
2022-08-22T00:20:20.572Z,100.00
2022-08-22T00:23:12.028Z,100.00
2022-08-22T00:25:59.627Z,100.00
2022-08-22T00:28:57.459Z,100.00
2022-08-22T00:31:33.028Z,100.00
2022-08-22T00:34:22.798Z,100.00
2022-08-22T00:37:08.246Z,100.00
2022-08-22T00:39:56.531Z,100.00
2022-08-22T00:42:49.404Z,100.00
2022-08-22T00:45:26.147Z,100.00
2022-08-22T00:48:12.319Z,100.00
2022-08-22T00:50:58.427Z,100.00
2022-08-22T00:53:51.173Z,100.00
2022-08-22T00:56:35.454Z,100.00
2022-08-22T00:59:17.969Z,100.00
2022-08-22T01:02:07.268Z,100.00
2022-08-22T01:05:00.488Z,100.00
2022-08-22T01:07:52.921Z,100.00
2022-08-22T01:10:33.529Z,100.00
2022-08-22T01:13:29.176Z,100.00
2022-08-22T01:16:17.765Z,100.00
2022-08-22T01:19:00.534Z,100.00
2022-08-22T01:21:51.682Z,100.00
2022-08-22T01:25:22.536Z,100.00
2022-08-22T01:28:13.494Z,100.00
2022-08-22T01:30:44.400Z,100.00
2022-08-22T01:33:57.036Z,100.00
2022-08-22T01:36:31.015Z,100.00
2022-08-22T01:39:21.205Z,100.00
2022-08-22T01:42:19.261Z,100.00
2022-08-22T01:45:06.498Z,100.00
2022-08-22T01:47:36.567Z,100.00
2022-08-22T01:50:29.357Z,100.00
2022-08-22T01:53:23.056Z,100.00
2022-08-22T01:55:54.284Z,100.00
2022-08-22T01:58:27.335Z,100.00
2022-08-22T02:01:10.995Z,100.00
2022-08-22T02:04:00.741Z,100.00
2022-08-22T02:06:35.844Z,100.00
2022-08-22T02:09:38.749Z,100.00
2022-08-22T02:12:42.451Z,100.00
2022-08-22T02:15:39.261Z,100.00
2022-08-22T02:18:09.062Z,100.00
2022-08-22T02:21:14.629Z,100.00
2022-08-22T02:23:58.623Z,100.00
2022-08-22T02:26:50.331Z,100.00
2022-08-22T02:29:33.742Z,100.00
2022-08-22T02:32:29.686Z,100.00
2022-08-22T02:35:12.840Z,100.00
2022-08-22T02:37:55.628Z,100.00
2022-08-22T02:40:35.472Z,100.00
2022-08-22T02:43:04.122Z,100.00
2022-08-22T02:45:35.998Z,100.00
2022-08-22T02:48:26.357Z,100.00
2022-08-22T02:51:21.362Z,100.00
2022-08-22T02:53:55.904Z,100.00
2022-08-22T02:56:31.692Z,100.00
2022-08-22T02:59:24.791Z,100.00
2022-08-22T03:01:55.381Z,100.00
2022-08-22T03:04:32.616Z,100.00
2022-08-22T03:07:21.772Z,100.00
2022-08-22T03:09:50.226Z,100.00
2022-08-22T03:12:33.002Z,100.00
2022-08-22T03:15:10.272Z,100.00
2022-08-22T03:18:06.214Z,100.00
2022-08-22T03:20:50.021Z,100.00
2022-08-22T03:23:34.211Z,100.00
2022-08-22T03:26:07.974Z,100.00
2022-08-22T03:28:52.651Z,100.00
2022-08-22T03:31:31.819Z,100.00
2022-08-22T03:34:22.963Z,100.00
2022-08-22T03:37:17.922Z,100.00
2022-08-22T03:40:02.569Z,100.00
2022-08-22T03:42:33.837Z,100.00
2022-08-22T03:45:20.209Z,100.00
2022-08-22T03:48:20.740Z,100.00
2022-08-22T03:51:03.808Z,100.00
2022-08-22T03:53:37.850Z,100.00
2022-08-22T03:56:20.654Z,100.00
2022-08-22T03:59:09.884Z,100.00
2022-08-22T04:01:57.041Z,100.00
2022-08-22T04:05:07.177Z,100.00
2022-08-22T04:07:56.425Z,100.00
2022-08-22T04:10:51.874Z,100.00
2022-08-22T04:13:46.457Z,100.00
2022-08-22T04:16:45.797Z,100.00
2022-08-22T04:19:36.102Z,100.00
2022-08-22T04:22:34.128Z,100.00
2022-08-22T04:25:23.548Z,100.00
2022-08-22T04:28:06.258Z,100.00
2022-08-22T04:30:44.493Z,100.00
2022-08-22T04:33:56.330Z,100.00
2022-08-22T04:36:42.062Z,100.00
2022-08-22T04:39:21.657Z,100.00
2022-08-22T04:42:33.752Z,100.00
2022-08-22T04:45:17.390Z,100.00
2022-08-22T04:47:47.134Z,100.00
2022-08-22T04:50:45.859Z,100.00
2022-08-22T04:53:38.388Z,100.00
2022-08-22T04:56:30.976Z,100.00
2022-08-22T04:59:04.667Z,100.00
2022-08-22T05:01:44.736Z,100.00
2022-08-22T05:04:44.308Z,100.00
2022-08-22T05:07:27.441Z,100.00
2022-08-22T05:10:11.998Z,100.00
2022-08-22T05:12:48.055Z,100.00
2022-08-22T05:15:38.437Z,100.00
2022-08-22T05:18:20.272Z,100.00
2022-08-22T05:20:51.607Z,100.00
2022-08-22T05:23:28.721Z,100.00
2022-08-22T05:26:01.278Z,100.00
2022-08-22T05:28:50.244Z,100.00
2022-08-22T05:31:30.405Z,100.00
2022-08-22T05:34:11.893Z,100.00
2022-08-22T05:36:57.023Z,100.00
2022-08-22T05:39:28.234Z,100.00
2022-08-22T05:42:00.581Z,100.00
2022-08-22T05:44:36.806Z,100.00
2022-08-22T05:47:23.222Z,100.00
2022-08-22T05:50:06.224Z,100.00
2022-08-22T05:53:06.138Z,100.00
2022-08-22T05:55:51.510Z,100.00
2022-08-22T05:58:34.821Z,100.00
2022-08-22T06:01:30.297Z,100.00
2022-08-22T06:04:23.324Z,100.00
2022-08-22T06:06:51.528Z,100.00
2022-08-22T06:09:24.048Z,100.00
2022-08-22T06:12:20.169Z,100.00
2022-08-22T06:15:16.906Z,100.00
2022-08-22T06:17:55.082Z,100.00
2022-08-22T06:20:32.340Z,100.00
2022-08-22T06:23:03.086Z,100.00
2022-08-22T06:25:39.079Z,100.00
2022-08-22T06:28:12.620Z,100.00
2022-08-22T06:30:45.656Z,100.00
2022-08-22T06:33:19.417Z,100.00
2022-08-22T06:36:09.722Z,100.00
2022-08-22T06:39:12.475Z,100.00
2022-08-22T06:41:57.141Z,100.00
2022-08-22T06:44:30.614Z,100.00
2022-08-22T06:47:02.182Z,100.00
2022-08-22T06:49:35.459Z,100.00
2022-08-22T06:52:09.610Z,100.00
2022-08-22T06:54:43.385Z,100.00
2022-08-22T06:57:40.982Z,100.00
2022-08-22T07:00:15.176Z,100.00
2022-08-22T07:02:48.946Z,100.00
2022-08-22T07:05:28.451Z,100.00
2022-08-22T07:07:57.307Z,100.00
2022-08-22T07:10:26.009Z,100.00
2022-08-22T07:12:56.978Z,100.00
2022-08-22T07:15:34.371Z,100.00
2022-08-22T07:18:09.984Z,100.00
2022-08-22T07:20:45.173Z,100.00
2022-08-22T07:23:35.831Z,100.00
2022-08-22T07:26:40.505Z,100.00
2022-08-22T07:29:31.314Z,100.00
2022-08-22T07:32:19.186Z,100.00
2022-08-22T07:34:53.614Z,100.00
2022-08-22T07:37:37.509Z,100.00
2022-08-22T07:40:24.158Z,100.00
2022-08-22T07:43:14.615Z,100.00
2022-08-22T07:45:52.908Z,100.00
2022-08-22T07:48:38.288Z,100.00
2022-08-22T07:51:18.505Z,100.00
2022-08-22T07:53:57.991Z,100.00
2022-08-22T07:56:38.338Z,100.00
2022-08-22T07:59:13.078Z,100.00
2022-08-22T08:01:53.661Z,100.00
2022-08-22T08:04:26.377Z,100.00
2022-08-22T08:06:58.962Z,100.00
2022-08-22T08:09:32.966Z,100.00
2022-08-22T08:12:05.985Z,100.00
2022-08-22T08:14:38.613Z,100.00
2022-08-22T08:17:19.297Z,100.00
2022-08-22T08:19:48.090Z,100.00
2022-08-22T08:22:19.928Z,100.00
2022-08-22T08:24:49.946Z,100.00
2022-08-22T08:27:42.392Z,100.00
2022-08-22T08:30:15.616Z,100.00
2022-08-22T08:33:12.121Z,100.00
2022-08-22T08:36:03.383Z,98.19
2022-08-22T08:38:42.481Z,98.70
2022-08-22T08:41:29.818Z,98.42
2022-08-22T08:44:36.862Z,94.32
2022-08-22T08:47:14.346Z,97.83
2022-08-22T08:49:58.632Z,94.62
2022-08-22T08:53:01.917Z,96.82
2022-08-22T08:55:53.577Z,97.20
2022-08-22T08:58:40.900Z,96.34
2022-08-22T09:01:33.104Z,94.39
2022-08-22T09:04:22.621Z,97.11
2022-08-22T09:06:54.821Z,96.79
2022-08-22T09:09:57.254Z,88.84
2022-08-22T09:13:00.083Z,86.92
2022-08-22T09:15:39.210Z,86.10
2022-08-22T09:18:13.545Z,88.75
2022-08-22T09:20:51.449Z,85.79
2022-08-22T09:23:41.398Z,86.29
2022-08-22T09:26:11.930Z,84.68
2022-08-22T09:29:04.795Z,84.61
2022-08-22T09:32:13.204Z,81.80
2022-08-22T09:34:53.693Z,78.59
2022-08-22T09:37:35.359Z,75.52
2022-08-22T09:40:56.153Z,71.15
2022-08-22T09:43:44.749Z,76.56
2022-08-22T09:46:32.137Z,78.97
2022-08-22T09:49:17.818Z,76.04
2022-08-22T09:52:15.545Z,79.12
2022-08-22T09:55:16.086Z,80.89
2022-08-22T09:57:54.367Z,77.62
2022-08-22T10:00:55.386Z,79.67
2022-08-22T10:04:22.473Z,80.53
2022-08-22T10:07:12.068Z,83.06
2022-08-22T10:10:10.487Z,84.00
2022-08-22T10:12:52.085Z,85.23
2022-08-22T10:15:41.562Z,86.52
2022-08-22T10:18:24.095Z,84.66
2022-08-22T10:21:16.339Z,83.46
2022-08-22T10:24:03.817Z,82.05
2022-08-22T10:26:51.036Z,81.86
2022-08-22T10:29:44.369Z,86.17
2022-08-22T10:32:38.956Z,83.07
2022-08-22T10:35:21.737Z,82.93
2022-08-22T10:38:14.325Z,84.03
2022-08-22T10:41:01.458Z,86.21
2022-08-22T10:44:11.665Z,86.90
2022-08-22T10:46:54.953Z,82.11
2022-08-22T10:49:34.385Z,81.90
2022-08-22T10:52:14.828Z,79.50
2022-08-22T10:55:17.283Z,80.08
2022-08-22T10:58:06.160Z,76.72
2022-08-22T11:00:59.606Z,76.83
2022-08-22T11:03:49.101Z,77.60
2022-08-22T11:06:44.842Z,77.67
2022-08-22T11:09:36.262Z,72.11
2022-08-22T11:12:41.799Z,71.63
2022-08-22T11:15:58.351Z,73.07
2022-08-22T11:18:35.279Z,66.34
2022-08-22T11:21:20.043Z,66.31
2022-08-22T11:24:30.013Z,68.14
2022-08-22T11:27:38.374Z,69.19
2022-08-22T11:30:18.532Z,65.04
2022-08-22T11:33:02.039Z,66.60
2022-08-22T11:36:07.160Z,67.11
2022-08-22T11:38:57.444Z,70.34
2022-08-22T11:41:36.000Z,66.24
2022-08-22T11:44:21.678Z,66.82
2022-08-22T11:46:58.304Z,67.36
2022-08-22T11:49:33.802Z,67.75
2022-08-22T11:52:24.220Z,67.71
2022-08-22T11:55:09.249Z,67.45
2022-08-22T11:57:45.100Z,65.68
2022-08-22T12:00:34.600Z,65.08
2022-08-22T12:03:41.826Z,65.78
2022-08-22T12:06:29.275Z,67.57
2022-08-22T12:09:20.537Z,69.03
2022-08-22T12:12:26.006Z,69.58
2022-08-22T12:15:00.319Z,66.68
2022-08-22T12:18:05.898Z,68.37
2022-08-22T12:21:13.288Z,67.50
2022-08-22T12:23:53.571Z,70.85
2022-08-22T12:26:33.100Z,70.49
2022-08-22T12:29:39.981Z,70.68
2022-08-22T12:32:34.960Z,70.37
2022-08-22T12:35:13.789Z,69.11
2022-08-22T12:38:27.960Z,67.32
2022-08-22T12:41:14.433Z,67.75
2022-08-22T12:44:21.737Z,69.47
2022-08-22T12:47:24.995Z,68.54
2022-08-22T12:50:02.256Z,69.04
2022-08-22T12:53:07.607Z,70.23
2022-08-22T12:56:04.982Z,70.26
2022-08-22T12:59:12.027Z,67.74
2022-08-22T13:01:44.936Z,68.49
2022-08-22T13:04:29.756Z,67.14
2022-08-22T13:07:02.149Z,65.28
2022-08-22T13:09:36.946Z,67.04
2022-08-22T13:12:25.314Z,68.29
2022-08-22T13:15:00.089Z,66.80
2022-08-22T13:17:29.403Z,65.05
2022-08-22T13:20:11.428Z,66.53
2022-08-22T13:22:45.681Z,66.35
2022-08-22T13:25:28.364Z,67.49
2022-08-22T13:28:00.175Z,66.53
2022-08-22T13:30:37.705Z,69.90
2022-08-22T13:33:11.260Z,65.69
2022-08-22T13:35:52.427Z,64.65
2022-08-22T13:38:33.459Z,63.71
2022-08-22T13:41:04.015Z,64.25
2022-08-22T13:43:54.587Z,63.47
2022-08-22T13:46:28.077Z,66.29
2022-08-22T13:49:01.355Z,66.33
2022-08-22T13:52:01.612Z,62.85
2022-08-22T13:54:55.029Z,60.92
2022-08-22T13:57:43.860Z,60.99
2022-08-22T14:00:29.292Z,62.58
2022-08-22T14:03:11.330Z,62.02
2022-08-22T14:05:44.707Z,62.87
2022-08-22T14:08:18.768Z,61.65
2022-08-22T14:10:58.011Z,63.66
2022-08-22T14:13:41.200Z,62.62
2022-08-22T14:16:32.976Z,61.47
2022-08-22T14:19:10.596Z,60.97
2022-08-22T14:22:07.273Z,61.67
2022-08-22T14:24:55.793Z,67.81
2022-08-22T14:27:37.065Z,69.80
2022-08-22T14:30:18.726Z,70.50
2022-08-22T14:32:59.327Z,71.83
2022-08-22T14:35:35.382Z,72.42
2022-08-22T14:38:46.291Z,72.69
2022-08-22T14:41:19.820Z,73.26
2022-08-22T14:43:56.969Z,72.80
2022-08-22T14:46:49.493Z,75.61
2022-08-22T14:49:28.653Z,75.04
2022-08-22T14:52:19.438Z,75.48
2022-08-22T14:54:48.597Z,75.94
2022-08-22T14:57:21.188Z,75.93
2022-08-22T14:59:52.356Z,77.00
2022-08-22T15:02:31.480Z,77.33
2022-08-22T15:05:12.852Z,78.27
2022-08-22T15:07:41.755Z,78.83
2022-08-22T15:10:42.206Z,78.58
2022-08-22T15:13:11.267Z,79.12
2022-08-22T15:15:54.191Z,80.05
2022-08-22T15:18:30.543Z,79.90
2022-08-22T15:21:03.561Z,79.26
2022-08-22T15:23:45.069Z,79.49
2022-08-22T15:26:28.717Z,80.32
2022-08-22T15:29:05.295Z,80.36
2022-08-22T15:31:36.135Z,80.16
2022-08-22T15:34:19.867Z,81.27
2022-08-22T15:37:20.142Z,81.65
2022-08-22T15:40:02.923Z,82.37
2022-08-22T15:42:48.904Z,83.60
2022-08-22T15:45:34.843Z,85.10
2022-08-22T15:48:23.786Z,85.27
2022-08-22T15:51:02.768Z,85.96
2022-08-22T15:53:59.751Z,85.62
2022-08-22T15:56:38.944Z,85.53
2022-08-22T15:59:26.510Z,85.64
2022-08-22T16:02:08.674Z,84.95
2022-08-22T16:04:52.848Z,84.79
2022-08-22T16:07:27.598Z,85.40
2022-08-22T16:09:59.540Z,85.98
2022-08-22T16:12:41.503Z,85.86
2022-08-22T16:15:47.051Z,86.33
2022-08-22T16:18:47.580Z,86.23
2022-08-22T16:21:17.454Z,86.10
2022-08-22T16:23:51.884Z,85.79
2022-08-22T16:26:21.749Z,85.67
2022-08-22T16:28:58.617Z,85.79
2022-08-22T16:31:37.959Z,87.32
2022-08-22T16:34:18.575Z,86.97
2022-08-22T16:37:08.943Z,89.08
2022-08-22T16:40:14.452Z,89.65
2022-08-22T16:43:09.482Z,89.75
2022-08-22T16:45:45.130Z,91.63
2022-08-22T16:48:26.729Z,91.98
2022-08-22T16:51:22.283Z,93.30
2022-08-22T16:54:12.970Z,93.66
2022-08-22T16:57:05.792Z,100.00
2022-08-22T16:59:43.186Z,100.00
2022-08-22T17:02:50.445Z,100.00
2022-08-22T17:05:49.746Z,100.00
2022-08-22T17:08:36.332Z,100.00
2022-08-22T17:11:25.868Z,100.00
2022-08-22T17:14:12.454Z,100.00
2022-08-22T17:16:54.116Z,100.00
2022-08-22T17:19:57.331Z,100.00
2022-08-22T17:22:37.986Z,100.00
2022-08-22T17:25:12.358Z,100.00
2022-08-22T17:27:45.033Z,100.00
2022-08-22T17:30:20.660Z,100.00
2022-08-22T17:33:09.273Z,100.00
2022-08-22T17:35:44.133Z,100.00
2022-08-22T17:38:32.013Z,100.00
2022-08-22T17:41:22.581Z,100.00
2022-08-22T17:44:09.770Z,100.00
2022-08-22T17:46:56.420Z,100.00
2022-08-22T17:49:38.964Z,100.00
2022-08-22T17:52:18.424Z,100.00
2022-08-22T17:55:01.828Z,100.00
2022-08-22T17:57:50.538Z,100.00
2022-08-22T18:00:30.764Z,100.00
2022-08-22T18:03:05.978Z,100.00
2022-08-22T18:05:39.911Z,100.00
2022-08-22T18:11:25.344Z,100.00
2022-08-22T18:14:05.025Z,100.00
2022-08-22T18:16:43.670Z,100.00
2022-08-22T18:19:21.849Z,100.00
2022-08-22T18:21:54.682Z,100.00
2022-08-22T18:24:33.320Z,100.00
2022-08-22T18:27:30.045Z,100.00
2022-08-22T18:30:20.593Z,100.00
2022-08-22T18:33:06.079Z,100.00
2022-08-22T18:35:49.921Z,100.00
2022-08-22T18:38:30.161Z,100.00
2022-08-22T18:41:31.463Z,100.00
2022-08-22T18:44:00.105Z,100.00
2022-08-22T18:46:37.481Z,100.00
2022-08-22T18:49:23.946Z,100.00
2022-08-22T18:52:13.917Z,100.00
2022-08-22T18:55:04.146Z,100.00
2022-08-22T18:58:10.709Z,100.00
2022-08-22T19:01:09.555Z,100.00
2022-08-22T19:03:47.164Z,100.00
2022-08-22T19:06:52.261Z,100.00
2022-08-22T19:09:58.588Z,100.00
2022-08-22T19:12:45.018Z,100.00
2022-08-22T19:15:55.349Z,100.00
2022-08-22T19:18:36.331Z,100.00
2022-08-22T19:21:38.054Z,100.00
2022-08-22T19:24:30.883Z,100.00
2022-08-22T19:27:12.381Z,100.00
2022-08-22T19:29:41.632Z,100.00
2022-08-22T19:32:30.606Z,100.00
2022-08-22T19:35:19.923Z,100.00
2022-08-22T19:37:54.168Z,100.00
2022-08-22T19:40:47.539Z,100.00
2022-08-22T19:43:38.272Z,100.00
2022-08-22T19:46:12.086Z,100.00
2022-08-22T19:48:48.642Z,100.00
2022-08-22T19:51:22.426Z,100.00
2022-08-22T19:54:06.409Z,100.00
2022-08-22T19:56:53.235Z,100.00
2022-08-22T20:00:06.821Z,100.00
2022-08-22T20:03:07.881Z,100.00
2022-08-22T20:05:56.956Z,100.00
2022-08-22T20:08:54.141Z,100.00
2022-08-22T20:11:47.478Z,100.00
2022-08-22T20:14:30.529Z,100.00
2022-08-22T20:17:09.478Z,100.00
2022-08-22T20:20:16.447Z,100.00
2022-08-22T20:22:59.568Z,100.00
2022-08-22T20:25:49.314Z,100.00
2022-08-22T20:28:30.029Z,100.00
2022-08-22T20:31:01.242Z,100.00
2022-08-22T20:33:36.436Z,100.00
2022-08-22T20:36:16.729Z,100.00
2022-08-22T20:39:11.048Z,100.00
2022-08-22T20:41:43.081Z,100.00
2022-08-22T20:44:23.180Z,100.00
2022-08-22T20:46:53.384Z,100.00
2022-08-22T20:49:30.462Z,100.00
2022-08-22T20:52:11.778Z,100.00
2022-08-22T20:54:41.187Z,100.00
2022-08-22T20:57:19.489Z,100.00
2022-08-22T20:59:58.601Z,100.00
2022-08-22T21:02:39.412Z,100.00
2022-08-22T21:05:18.753Z,100.00
2022-08-22T21:08:06.598Z,100.00
2022-08-22T21:10:57.195Z,100.00
2022-08-22T21:13:27.333Z,100.00
2022-08-22T21:16:02.807Z,100.00
2022-08-22T21:18:59.169Z,100.00
2022-08-22T21:21:33.366Z,100.00
2022-08-22T21:24:05.666Z,100.00
2022-08-22T21:26:40.824Z,100.00
2022-08-22T21:29:22.487Z,100.00
2022-08-22T21:31:59.413Z,100.00
2022-08-22T21:34:43.671Z,100.00
2022-08-22T21:37:22.897Z,100.00
2022-08-22T21:39:56.567Z,100.00
2022-08-22T21:42:35.231Z,100.00
2022-08-22T21:45:08.090Z,100.00
2022-08-22T21:47:40.662Z,100.00
2022-08-22T21:50:20.804Z,100.00
2022-08-22T21:52:55.906Z,100.00
2022-08-22T21:55:30.165Z,100.00
2022-08-22T21:58:35.947Z,100.00
2022-08-22T22:01:29.121Z,100.00
2022-08-22T22:03:59.196Z,100.00
2022-08-22T22:06:27.842Z,100.00
2022-08-22T22:08:56.152Z,100.00
2022-08-22T22:11:25.126Z,100.00
2022-08-22T22:13:53.775Z,100.00
2022-08-22T22:16:26.478Z,100.00
2022-08-22T22:18:55.561Z,100.00
2022-08-22T22:21:23.600Z,100.00
2022-08-22T22:23:52.650Z,100.00
2022-08-22T22:26:21.394Z,100.00
2022-08-22T22:28:50.362Z,100.00
2022-08-22T22:31:19.117Z,100.00
2022-08-22T22:33:47.879Z,100.00
2022-08-22T22:36:25.567Z,100.00
2022-08-22T22:38:55.138Z,100.00
2022-08-22T22:41:25.617Z,100.00
2022-08-22T22:43:55.181Z,100.00
2022-08-22T22:46:24.019Z,100.00
2022-08-22T22:48:52.633Z,100.00
2022-08-22T22:51:21.420Z,100.00
2022-08-22T22:53:50.004Z,100.00
2022-08-22T22:56:21.480Z,100.00
2022-08-22T22:59:01.133Z,100.00
2022-08-22T23:02:00.457Z,100.00
2022-08-22T23:04:29.938Z,100.00
2022-08-22T23:06:59.174Z,100.00
2022-08-22T23:09:38.469Z,100.00
2022-08-22T23:12:14.825Z,100.00
2022-08-22T23:14:43.164Z,100.00
2022-08-22T23:17:11.432Z,100.00
2022-08-22T23:19:40.495Z,100.00
2022-08-22T23:22:09.450Z,100.00
2022-08-22T23:24:39.217Z,100.00
2022-08-22T23:27:09.610Z,100.00
2022-08-22T23:29:41.016Z,100.00
2022-08-22T23:32:12.529Z,100.00
2022-08-22T23:34:45.857Z,100.00
2022-08-22T23:37:18.248Z,100.00
2022-08-22T23:39:47.345Z,100.00
2022-08-22T23:42:18.132Z,100.00
2022-08-22T23:44:46.812Z,100.00
2022-08-22T23:47:15.659Z,100.00
2022-08-22T23:49:44.529Z,100.00
2022-08-22T23:52:14.100Z,100.00
2022-08-22T23:54:42.407Z,100.00
2022-08-22T23:57:12.087Z,100.00
2022-08-22T23:59:46.231Z,100.00
